createdAt,value
2018-12-02T00:01:35.314Z,95627.38
2018-12-02T00:04:02.246Z,95627.93
2018-12-02T00:06:29.164Z,95633.63
2018-12-02T00:08:56.069Z,95632.91
2018-12-02T00:11:22.990Z,95621.19
2018-12-02T00:13:49.898Z,95622.14
2018-12-02T00:16:16.806Z,95621.79
2018-12-02T00:18:43.726Z,95626.77
2018-12-02T00:21:10.674Z,95630.59
2018-12-02T00:23:37.590Z,95633.91
2018-12-02T00:26:04.514Z,95626.00
2018-12-02T00:28:31.424Z,95630.27
2018-12-02T00:30:58.341Z,95619.64
2018-12-02T00:33:25.248Z,95622.64
2018-12-02T00:35:52.163Z,95616.45
2018-12-02T00:38:19.092Z,95619.06
2018-12-02T00:40:46.007Z,95618.60
2018-12-02T00:43:12.927Z,95616.00
2018-12-02T00:45:39.842Z,95614.02
2018-12-02T00:48:06.762Z,95611.33
2018-12-02T00:50:33.676Z,95614.02
2018-12-02T00:53:00.584Z,95616.05
2018-12-02T00:55:27.484Z,95613.08
2018-12-02T00:57:54.414Z,95612.77
2018-12-02T01:00:21.318Z,95610.61
2018-12-02T01:02:48.253Z,95610.21
2018-12-02T01:05:15.208Z,95607.94
2018-12-02T01:07:42.117Z,95609.86
2018-12-02T01:10:09.040Z,95603.87
2018-12-02T01:12:35.953Z,95607.48
2018-12-02T01:15:02.856Z,95602.38
2018-12-02T01:17:29.781Z,95602.53
2018-12-02T01:19:56.701Z,95598.66
2018-12-02T01:22:23.621Z,95595.91
2018-12-02T01:24:50.531Z,95594.39
2018-12-02T01:27:17.437Z,95598.89
2018-12-02T01:29:44.399Z,95604.22
2018-12-02T01:32:11.328Z,95596.55
2018-12-02T01:34:38.243Z,95599.29
2018-12-02T01:37:05.162Z,95595.66
2018-12-02T01:39:32.104Z,95597.55
2018-12-02T01:41:59.022Z,95588.56
2018-12-02T01:44:25.936Z,95586.13
2018-12-02T01:46:52.874Z,95591.06
2018-12-02T01:49:19.795Z,95591.17
2018-12-02T01:51:46.733Z,95584.38
2018-12-02T01:54:13.669Z,95586.53
2018-12-02T01:56:40.579Z,95576.55
2018-12-02T01:59:07.509Z,95573.00
2018-12-02T02:01:34.427Z,95573.48
2018-12-02T02:04:01.339Z,95573.34
2018-12-02T02:06:28.278Z,95567.73
2018-12-02T02:08:55.199Z,95562.89
2018-12-02T02:11:22.131Z,95569.22
2018-12-02T02:13:49.058Z,95560.68
2018-12-02T02:16:15.974Z,95566.39
2018-12-02T02:18:42.898Z,95567.33
2018-12-02T02:21:09.822Z,95563.97
2018-12-02T02:23:36.746Z,95559.84
2018-12-02T02:26:03.683Z,95558.05
2018-12-02T02:28:30.604Z,95559.94
2018-12-02T02:30:57.535Z,95556.95
2018-12-02T02:33:24.462Z,95565.58
2018-12-02T02:35:51.396Z,95560.88
2018-12-02T02:38:18.328Z,95563.54
2018-12-02T02:40:45.253Z,95567.04
2018-12-02T02:43:12.177Z,95568.67
2018-12-02T02:45:39.117Z,95577.84
2018-12-02T02:48:06.034Z,95573.66
2018-12-02T02:50:32.973Z,95569.02
2018-12-02T02:52:59.908Z,95566.73
2018-12-02T02:55:26.823Z,95568.31
2018-12-02T02:57:53.753Z,95564.27
2018-12-02T03:00:20.668Z,95563.06
2018-12-02T03:02:47.594Z,95557.39
2018-12-02T03:05:14.536Z,95559.68
2018-12-02T03:07:41.458Z,95562.38
2018-12-02T03:10:08.414Z,95562.38
2018-12-02T03:12:35.344Z,95553.70
2018-12-02T03:15:02.266Z,95557.87
2018-12-02T03:17:29.185Z,95562.32
2018-12-02T03:19:56.106Z,95559.48
2018-12-02T03:22:23.026Z,95563.67
2018-12-02T03:24:49.975Z,95565.02
2018-12-02T03:27:16.926Z,95571.61
2018-12-02T03:29:43.859Z,95570.48
2018-12-02T03:32:10.842Z,95571.30
2018-12-02T03:34:37.773Z,95567.39
2018-12-02T03:37:04.683Z,95570.89
2018-12-02T03:39:31.593Z,95571.44
2018-12-02T03:41:58.508Z,95578.48
2018-12-02T03:44:25.446Z,95577.05
2018-12-02T03:46:52.359Z,95572.70
2018-12-02T03:49:19.284Z,95581.50
2018-12-02T03:51:46.216Z,95582.18
2018-12-02T03:54:13.149Z,95585.27
2018-12-02T03:56:40.078Z,95592.88
2018-12-02T03:59:06.998Z,95589.63
2018-12-02T04:01:33.914Z,95593.09
2018-12-02T04:04:00.844Z,95598.54
2018-12-02T04:06:27.777Z,95594.91
2018-12-02T04:08:54.690Z,95585.61
2018-12-02T04:11:21.605Z,95586.02
2018-12-02T04:13:48.530Z,95575.95
2018-12-02T04:16:15.462Z,95576.64
2018-12-02T04:18:42.385Z,95576.95
2018-12-02T04:21:09.320Z,95580.05
2018-12-02T04:23:36.322Z,95578.36
2018-12-02T04:26:03.199Z,95577.50
2018-12-02T04:28:30.111Z,95575.89
2018-12-02T04:30:57.019Z,95577.81
2018-12-02T04:33:23.954Z,95580.11
2018-12-02T04:35:50.874Z,95583.57
2018-12-02T04:38:17.799Z,95587.78
2018-12-02T04:40:44.723Z,95587.61
2018-12-02T04:43:11.633Z,95591.02
2018-12-02T04:45:38.563Z,95598.84
2018-12-02T04:48:05.475Z,95594.11
2018-12-02T04:50:32.394Z,95594.11
2018-12-02T04:52:59.329Z,95581.85
2018-12-02T04:55:26.255Z,95574.11
2018-12-02T04:57:53.178Z,95574.20
2018-12-02T05:00:20.116Z,95575.55
2018-12-02T05:02:47.023Z,95577.61
2018-12-02T05:05:13.951Z,95583.08
2018-12-02T05:07:40.889Z,95583.94
2018-12-02T05:10:07.802Z,95584.13
2018-12-02T05:12:34.781Z,95588.61
2018-12-02T05:15:01.697Z,95588.23
2018-12-02T05:17:28.639Z,95597.05
2018-12-02T05:19:55.560Z,95595.52
2018-12-02T05:22:22.482Z,95599.38
2018-12-02T05:24:49.409Z,95592.65
2018-12-02T05:27:16.372Z,95593.45
2018-12-02T05:29:43.286Z,95590.98
2018-12-02T05:32:10.215Z,95593.36
2018-12-02T05:34:37.139Z,95588.92
2018-12-02T05:37:04.060Z,95588.31
2018-12-02T05:39:30.996Z,95600.06
2018-12-02T05:41:57.905Z,95593.68
2018-12-02T05:44:24.850Z,95592.76
2018-12-02T05:46:51.773Z,95582.78
2018-12-02T05:49:18.686Z,95594.67
2018-12-02T05:51:45.621Z,95598.59
2018-12-02T05:54:12.533Z,95601.55
2018-12-02T05:56:39.471Z,95599.48
2018-12-02T05:59:06.443Z,95601.01
2018-12-02T06:01:33.366Z,95607.74
2018-12-02T06:04:00.301Z,95610.84
2018-12-02T06:06:27.215Z,95611.92
2018-12-02T06:08:54.146Z,95602.63
2018-12-02T06:11:21.091Z,95609.56
2018-12-02T06:13:48.005Z,95616.25
2018-12-02T06:16:14.939Z,95617.05
2018-12-02T06:18:41.866Z,95622.98
2018-12-02T06:21:08.788Z,95619.34
2018-12-02T06:23:35.718Z,95619.52
2018-12-02T06:26:02.657Z,95617.84
2018-12-02T06:28:29.585Z,95623.64
2018-12-02T06:30:56.513Z,95624.05
2018-12-02T06:33:23.432Z,95625.65
2018-12-02T06:35:50.371Z,95629.69
2018-12-02T06:38:17.299Z,95630.47
2018-12-02T06:40:44.221Z,95635.76
2018-12-02T06:43:11.137Z,95641.20
2018-12-02T06:45:38.058Z,95638.45
2018-12-02T06:48:04.974Z,95634.36
2018-12-02T06:50:31.875Z,95629.92
2018-12-02T06:52:58.795Z,95637.59
2018-12-02T06:55:25.783Z,95629.38
2018-12-02T06:57:52.774Z,95629.12
2018-12-02T07:00:19.735Z,95638.41
2018-12-02T07:02:46.665Z,95641.64
2018-12-02T07:05:13.621Z,95643.88
2018-12-02T07:07:40.540Z,95644.69
2018-12-02T07:10:07.451Z,95646.16
2018-12-02T07:12:34.381Z,95640.88
2018-12-02T07:15:01.284Z,95644.60
2018-12-02T07:17:28.225Z,95639.73
2018-12-02T07:19:55.183Z,95642.81
2018-12-02T07:22:22.115Z,95641.05
2018-12-02T07:24:49.068Z,95636.54
2018-12-02T07:27:16.010Z,95645.55
2018-12-02T07:29:42.915Z,95644.44
2018-12-02T07:32:09.850Z,95645.86
2018-12-02T07:34:36.771Z,95642.71
2018-12-02T07:37:03.692Z,95644.17
2018-12-02T07:39:31.859Z,95640.53
2018-12-02T07:41:57.556Z,95644.48
2018-12-02T07:44:24.471Z,95644.58
2018-12-02T07:46:51.408Z,95639.42
2018-12-02T07:49:18.318Z,95646.53
2018-12-02T07:51:45.235Z,95640.86
2018-12-02T07:54:12.132Z,95634.73
2018-12-02T07:56:39.042Z,95646.66
2018-12-02T07:59:05.956Z,95645.61
2018-12-02T08:01:32.856Z,95640.38
2018-12-02T08:03:59.791Z,95642.34
2018-12-02T08:06:26.712Z,95639.58
2018-12-02T08:08:53.623Z,95638.97
2018-12-02T08:11:20.552Z,95641.08
2018-12-02T08:13:47.461Z,95640.22
2018-12-02T08:16:14.373Z,95645.89
2018-12-02T08:18:41.301Z,95645.61
2018-12-02T08:21:08.205Z,95639.78
2018-12-02T08:23:35.125Z,95649.73
2018-12-02T08:26:02.047Z,95654.33
2018-12-02T08:28:28.951Z,95643.67
2018-12-02T08:30:55.876Z,95638.39
2018-12-02T08:33:22.791Z,95645.42
2018-12-02T08:35:49.710Z,95645.69
2018-12-02T08:38:16.628Z,95644.59
2018-12-02T08:40:43.528Z,95646.24
2018-12-02T08:43:10.449Z,95645.09
2018-12-02T08:45:38.089Z,95640.81
2018-12-02T08:48:04.273Z,95637.11
2018-12-02T08:50:31.200Z,95638.42
2018-12-02T08:52:58.146Z,95642.41
2018-12-02T08:55:25.059Z,95634.14
2018-12-02T08:57:51.975Z,95637.86
2018-12-02T09:00:18.893Z,95632.34
2018-12-02T09:02:45.818Z,95639.83
2018-12-02T09:05:12.737Z,95634.61
2018-12-02T09:07:39.644Z,95626.17
2018-12-02T09:10:06.564Z,95624.02
2018-12-02T09:12:33.478Z,95618.97
2018-12-02T09:15:00.387Z,95619.98
2018-12-02T09:17:27.310Z,95621.55
2018-12-02T09:19:54.221Z,95620.13
2018-12-02T09:22:21.130Z,95615.06
2018-12-02T09:24:48.025Z,95618.38
2018-12-02T09:27:14.954Z,95609.25
2018-12-02T09:29:41.854Z,95610.89
2018-12-02T09:32:08.779Z,95603.98
2018-12-02T09:34:35.695Z,95603.19
2018-12-02T09:37:02.611Z,95594.47
2018-12-02T09:39:29.545Z,95597.59
2018-12-02T09:41:56.450Z,95592.59
2018-12-02T09:44:23.362Z,95594.53
2018-12-02T09:46:50.289Z,95585.30
2018-12-02T09:49:17.197Z,95594.31
2018-12-02T09:51:44.116Z,95592.91
2018-12-02T09:54:11.101Z,95591.33
2018-12-02T09:56:38.051Z,95585.72
2018-12-02T09:59:04.977Z,95587.73
2018-12-02T10:01:31.882Z,95578.95
2018-12-02T10:03:58.832Z,95575.66
2018-12-02T10:06:25.799Z,95566.32
2018-12-02T10:08:52.697Z,95571.30
2018-12-02T10:11:19.630Z,95565.40
2018-12-02T10:13:46.557Z,95563.13
2018-12-02T10:16:15.992Z,95563.22
2018-12-02T10:18:40.407Z,95560.81
2018-12-02T10:21:07.310Z,95565.61
2018-12-02T10:23:34.221Z,95561.33
2018-12-02T10:26:01.144Z,95563.25
2018-12-02T10:28:28.054Z,95567.39
2018-12-02T10:30:54.962Z,95562.47
2018-12-02T10:33:21.890Z,95556.80
2018-12-02T10:35:48.805Z,95545.75
2018-12-02T10:38:15.736Z,95547.58
2018-12-02T10:40:42.849Z,95537.73
2018-12-02T10:43:14.748Z,95544.02
2018-12-02T10:45:41.632Z,95538.89
2018-12-02T10:48:11.510Z,95533.40
2018-12-02T10:50:38.443Z,95532.28
2018-12-02T10:53:05.408Z,95533.23
2018-12-02T10:55:32.366Z,95531.42
2018-12-02T10:57:59.275Z,95532.14
2018-12-02T11:00:26.237Z,95529.99
2018-12-02T11:02:53.187Z,95531.59
2018-12-02T11:05:20.183Z,95525.61
2018-12-02T11:07:47.091Z,95524.46
2018-12-02T11:10:14.015Z,95524.31
2018-12-02T11:12:40.927Z,95520.25
2018-12-02T11:15:07.842Z,95519.22
2018-12-02T11:17:34.813Z,95511.19
2018-12-02T11:20:01.719Z,95495.67
2018-12-02T11:22:28.669Z,95503.06
2018-12-02T11:24:55.633Z,95497.66
2018-12-02T11:27:22.606Z,95496.74
2018-12-02T11:29:49.524Z,95498.88
2018-12-02T11:32:16.438Z,95495.19
2018-12-02T11:34:43.388Z,95502.11
2018-12-02T11:37:10.305Z,95497.02
2018-12-02T11:39:37.217Z,95497.61
2018-12-02T11:42:04.125Z,95492.20
2018-12-02T11:44:31.040Z,95490.70
2018-12-02T11:46:57.942Z,95490.44
2018-12-02T11:49:24.857Z,95482.31
2018-12-02T11:51:51.821Z,95484.79
2018-12-02T11:54:18.719Z,95474.35
2018-12-02T11:56:45.655Z,95468.80
2018-12-02T11:59:12.608Z,95474.05
2018-12-02T12:01:39.521Z,95469.91
2018-12-02T12:04:06.447Z,95467.38
2018-12-02T12:06:33.366Z,95460.03
2018-12-02T12:09:00.340Z,95456.45
2018-12-02T12:11:27.274Z,95460.77
2018-12-02T12:13:54.194Z,95456.61
2018-12-02T12:16:21.144Z,95460.73
2018-12-02T12:18:48.074Z,95452.66
2018-12-02T12:21:15.004Z,95458.59
2018-12-02T12:23:41.954Z,95449.94
2018-12-02T12:26:08.879Z,95441.36
2018-12-02T12:28:35.816Z,95435.63
2018-12-02T12:31:02.745Z,95438.27
2018-12-02T12:33:29.661Z,95443.50
2018-12-02T12:35:56.611Z,95433.49
2018-12-02T12:38:23.531Z,95427.44
2018-12-02T12:40:50.470Z,95422.52
2018-12-02T12:43:17.398Z,95421.73
2018-12-02T12:45:44.317Z,95415.60
2018-12-02T12:48:11.251Z,95415.66
2018-12-02T12:50:38.184Z,95419.25
2018-12-02T12:53:05.094Z,95415.84
2018-12-02T12:55:32.036Z,95424.25
2018-12-02T12:57:58.982Z,95423.06
2018-12-02T13:00:25.893Z,95421.71
2018-12-02T13:02:52.837Z,95420.86
2018-12-02T13:05:19.757Z,95418.14
2018-12-02T13:07:46.697Z,95416.16
2018-12-02T13:10:13.630Z,95420.84
2018-12-02T13:12:40.553Z,95423.05
2018-12-02T13:15:07.494Z,95415.37
2018-12-02T13:17:34.419Z,95417.09
2018-12-02T13:20:01.342Z,95419.56
2018-12-02T13:22:28.290Z,95422.29
2018-12-02T13:24:55.212Z,95418.23
2018-12-02T13:27:22.147Z,95417.67
2018-12-02T13:29:49.127Z,95418.92
2018-12-02T13:32:16.041Z,95416.00
2018-12-02T13:34:42.975Z,95415.83
2018-12-02T13:37:09.905Z,95418.91
2018-12-02T13:39:36.827Z,95413.83
2018-12-02T13:42:03.771Z,95412.81
2018-12-02T13:44:30.734Z,95416.02
2018-12-02T13:46:57.673Z,95419.59
2018-12-02T13:49:24.613Z,95418.30
2018-12-02T13:51:51.537Z,95423.13
2018-12-02T13:54:18.474Z,95428.53
2018-12-02T13:56:45.400Z,95424.00
2018-12-02T13:59:12.328Z,95422.09
2018-12-02T14:01:39.261Z,95422.60
2018-12-02T14:04:06.226Z,95420.70
2018-12-02T14:06:33.167Z,95415.83
2018-12-02T14:09:00.103Z,95412.08
2018-12-02T14:11:27.075Z,95410.73
2018-12-02T14:13:54.015Z,95416.11
2018-12-02T14:16:20.933Z,95416.52
2018-12-02T14:18:47.859Z,95415.42
2018-12-02T14:21:14.805Z,95421.40
2018-12-02T14:23:41.725Z,95423.37
2018-12-02T14:26:08.667Z,95417.57
2018-12-02T14:28:35.600Z,95423.81
2018-12-02T14:31:02.527Z,95419.69
2018-12-02T14:33:29.448Z,95410.56
2018-12-02T14:35:56.394Z,95413.16
2018-12-02T14:38:23.377Z,95416.27
2018-12-02T14:40:50.305Z,95417.39
2018-12-02T14:43:17.248Z,95410.97
2018-12-02T14:45:44.183Z,95409.66
2018-12-02T14:48:11.110Z,95413.64
2018-12-02T14:50:38.040Z,95408.64
2018-12-02T14:53:05.001Z,95409.33
2018-12-02T14:55:31.931Z,95406.41
2018-12-02T14:57:58.876Z,95406.41
2018-12-02T15:00:25.795Z,95405.75
2018-12-02T15:02:52.732Z,95404.73
2018-12-02T15:05:20.457Z,95412.17
2018-12-02T15:07:46.564Z,95407.06
2018-12-02T15:10:13.500Z,95409.80
2018-12-02T15:12:40.423Z,95404.66
2018-12-02T15:15:07.360Z,95404.48
2018-12-02T15:17:34.305Z,95401.89
2018-12-02T15:20:01.212Z,95408.79
2018-12-02T15:22:28.195Z,95402.44
2018-12-02T15:24:55.119Z,95414.66
2018-12-02T15:27:22.040Z,95410.39
2018-12-02T15:29:49.019Z,95415.05
2018-12-02T15:32:15.942Z,95413.52
2018-12-02T15:34:42.879Z,95418.30
2018-12-02T15:37:09.824Z,95418.77
2018-12-02T15:39:36.756Z,95420.22
2018-12-02T15:42:03.688Z,95416.05
2018-12-02T15:44:30.610Z,95416.92
2018-12-02T15:46:57.534Z,95420.14
2018-12-02T15:49:24.468Z,95421.16
2018-12-02T15:51:51.386Z,95423.86
2018-12-02T15:54:18.313Z,95425.21
2018-12-02T15:56:45.246Z,95423.86
2018-12-02T15:59:12.205Z,95424.27
2018-12-02T16:01:39.139Z,95419.73
2018-12-02T16:04:06.085Z,95422.00
2018-12-02T16:06:32.993Z,95425.88
2018-12-02T16:08:59.940Z,95423.05
2018-12-02T16:11:26.864Z,95424.40
2018-12-02T16:13:53.801Z,95427.24
2018-12-02T16:16:20.744Z,95424.33
2018-12-02T16:18:47.669Z,95432.56
2018-12-02T16:21:14.614Z,95428.52
2018-12-02T16:23:41.532Z,95431.44
2018-12-02T16:26:08.460Z,95432.75
2018-12-02T16:28:35.386Z,95434.09
2018-12-02T16:31:02.321Z,95435.44
2018-12-02T16:33:29.279Z,95437.42
2018-12-02T16:35:56.217Z,95431.69
2018-12-02T16:38:23.138Z,95437.48
2018-12-02T16:40:50.066Z,95441.94
2018-12-02T16:43:16.995Z,95437.16
2018-12-02T16:45:43.917Z,95442.30
2018-12-02T16:48:10.848Z,95446.73
2018-12-02T16:50:37.764Z,95445.64
2018-12-02T16:53:04.694Z,95448.48
2018-12-02T16:55:31.623Z,95445.31
2018-12-02T16:57:58.543Z,95450.56
2018-12-02T17:00:25.484Z,95451.80
2018-12-02T17:02:52.425Z,95455.08
2018-12-02T17:05:19.351Z,95468.48
2018-12-02T17:07:46.286Z,95460.67
2018-12-02T17:10:13.218Z,95466.07
2018-12-02T17:12:40.129Z,95464.55
2018-12-02T17:15:07.048Z,95458.27
2018-12-02T17:17:33.966Z,95458.99
2018-12-02T17:20:00.881Z,95459.94
2018-12-02T17:22:27.808Z,95463.10
2018-12-02T17:24:54.727Z,95464.59
2018-12-02T17:27:21.639Z,95470.07
2018-12-02T17:29:48.610Z,95462.59
2018-12-02T17:32:15.529Z,95465.86
2018-12-02T17:34:42.461Z,95461.70
2018-12-02T17:37:09.386Z,95463.72
2018-12-02T17:39:36.287Z,95464.95
2018-12-02T17:42:03.217Z,95465.27
2018-12-02T17:44:30.188Z,95461.15
2018-12-02T17:46:57.135Z,95469.64
2018-12-02T17:49:24.060Z,95473.83
2018-12-02T17:51:53.490Z,95467.78
2018-12-02T17:54:20.410Z,95475.98
2018-12-02T17:56:47.404Z,95472.87
2018-12-02T17:59:14.329Z,95466.81
2018-12-02T18:01:41.272Z,95466.89
2018-12-02T18:04:08.199Z,95462.70
2018-12-02T18:06:35.120Z,95452.61
2018-12-02T18:09:02.041Z,95458.18
2018-12-02T18:11:28.944Z,95448.83
2018-12-02T18:13:55.858Z,95446.13
2018-12-02T18:16:22.803Z,95449.03
2018-12-02T18:18:49.715Z,95438.51
2018-12-02T18:21:16.642Z,95444.44
2018-12-02T18:23:43.571Z,95442.78
2018-12-02T18:26:10.484Z,95439.67
2018-12-02T18:28:37.419Z,95438.92
2018-12-02T18:31:04.334Z,95438.73
2018-12-02T18:33:31.260Z,95434.80
2018-12-02T18:35:58.201Z,95433.86
2018-12-02T18:38:25.117Z,95440.61
2018-12-02T18:40:52.040Z,95442.37
2018-12-02T18:43:18.965Z,95448.42
2018-12-02T18:45:45.880Z,95446.53
2018-12-02T18:48:13.448Z,95455.14
2018-12-02T18:50:40.357Z,95456.98
2018-12-02T18:53:07.287Z,95465.47
2018-12-02T18:55:34.214Z,95463.25
2018-12-02T18:58:01.119Z,95461.76
2018-12-02T19:00:28.072Z,95468.96
2018-12-02T19:02:55.041Z,95465.47
2018-12-02T19:05:21.959Z,95461.50
2018-12-02T19:07:56.437Z,95458.61
2018-12-02T19:10:23.341Z,95465.13
2018-12-02T19:12:51.304Z,95466.30
2018-12-02T19:15:17.175Z,95465.61
2018-12-02T19:17:44.441Z,95463.92
2018-12-02T19:20:11.357Z,95458.74
2018-12-02T19:22:38.272Z,95458.80
2018-12-02T19:25:05.195Z,95461.90
2018-12-02T19:27:32.171Z,95461.27
2018-12-02T19:29:59.038Z,95462.91
2018-12-02T19:32:25.982Z,95459.73
2018-12-02T19:34:52.908Z,95459.19
2018-12-02T19:37:19.831Z,95453.39
2018-12-02T19:39:46.742Z,95449.35
2018-12-02T19:42:13.659Z,95444.57
2018-12-02T19:44:40.561Z,95439.98
2018-12-02T19:47:07.469Z,95433.93
2018-12-02T19:49:34.395Z,95424.75
2018-12-02T19:52:01.323Z,95424.98
2018-12-02T19:54:28.224Z,95428.08
2018-12-02T19:56:55.148Z,95439.80
2018-12-02T19:59:22.062Z,95440.38
2018-12-02T20:01:48.974Z,95439.98
2018-12-02T20:04:15.900Z,95431.89
2018-12-02T20:06:42.819Z,95430.31
2018-12-02T20:09:09.748Z,95431.91
2018-12-02T20:11:36.669Z,95438.73
2018-12-02T20:14:03.570Z,95438.36
2018-12-02T20:16:30.502Z,95438.59
2018-12-02T20:18:57.409Z,95428.41
2018-12-02T20:21:24.318Z,95425.58
2018-12-02T20:23:51.246Z,95430.97
2018-12-02T20:26:18.158Z,95434.20
2018-12-02T20:28:45.086Z,95427.27
2018-12-02T20:31:12.004Z,95422.29
2018-12-02T20:33:38.908Z,95428.63
2018-12-02T20:36:05.911Z,95437.37
2018-12-02T20:38:32.727Z,95447.48
2018-12-02T20:40:59.648Z,95445.92
2018-12-02T20:43:26.590Z,95438.70
2018-12-02T20:45:53.506Z,95438.52
2018-12-02T20:48:20.434Z,95439.56
2018-12-02T20:50:47.469Z,95446.77
2018-12-02T20:53:16.209Z,95438.88
2018-12-02T20:55:41.362Z,95442.73
2018-12-02T20:58:08.276Z,95437.97
2018-12-02T21:00:35.573Z,95439.06
2018-12-02T21:03:03.197Z,95442.56
2018-12-02T21:05:30.097Z,95436.14
2018-12-02T21:07:57.037Z,95439.42
2018-12-02T21:10:23.968Z,95445.27
2018-12-02T21:12:50.920Z,95447.16
2018-12-02T21:15:17.851Z,95447.80
2018-12-02T21:17:44.761Z,95450.00
2018-12-02T21:20:11.674Z,95446.30
2018-12-02T21:22:38.594Z,95445.50
2018-12-02T21:25:05.500Z,95445.09
2018-12-02T21:27:32.421Z,95451.06
2018-12-02T21:29:59.340Z,95455.19
2018-12-02T21:32:26.256Z,95446.08
2018-12-02T21:34:53.179Z,95451.47
2018-12-02T21:37:20.086Z,95448.59
2018-12-02T21:39:47.038Z,95451.28
2018-12-02T21:42:13.966Z,95449.14
2018-12-02T21:44:40.865Z,95453.03
2018-12-02T21:47:07.784Z,95449.31
2018-12-02T21:49:34.705Z,95452.81
2018-12-02T21:52:01.670Z,95452.55
2018-12-02T21:54:28.623Z,95446.77
2018-12-02T21:56:55.578Z,95449.14
2018-12-02T21:59:22.495Z,95451.06
2018-12-02T22:01:49.411Z,95445.67
2018-12-02T22:04:16.323Z,95443.27
2018-12-02T22:06:43.243Z,95435.44
2018-12-02T22:09:10.151Z,95434.49
2018-12-02T22:11:37.055Z,95435.66
2018-12-02T22:14:03.982Z,95432.74
2018-12-02T22:16:30.880Z,95439.88
2018-12-02T22:18:57.785Z,95437.33
2018-12-02T22:21:24.717Z,95439.48
2018-12-02T22:23:51.645Z,95431.94
2018-12-02T22:26:18.566Z,95430.27
2018-12-02T22:28:45.475Z,95433.77
2018-12-02T22:31:12.404Z,95430.67
2018-12-02T22:33:39.322Z,95435.30
2018-12-02T22:36:06.254Z,95427.90
2018-12-02T22:38:33.187Z,95431.39
2018-12-02T22:41:00.096Z,95431.39
2018-12-02T22:43:27.025Z,95436.39
2018-12-02T22:45:53.955Z,95437.33
2018-12-02T22:48:20.881Z,95438.34
2018-12-02T22:50:47.811Z,95442.32
2018-12-02T22:53:14.739Z,95440.17
2018-12-02T22:55:41.680Z,95441.92
2018-12-02T22:58:08.605Z,95443.19
2018-12-02T23:00:35.527Z,95439.40
2018-12-02T23:03:02.453Z,95441.30
2018-12-02T23:05:29.366Z,95436.05
2018-12-02T23:07:56.333Z,95424.86
2018-12-02T23:10:23.213Z,95436.19
2018-12-02T23:12:50.128Z,95425.59
2018-12-02T23:15:17.055Z,95424.38
2018-12-02T23:17:43.985Z,95421.69
2018-12-02T23:20:10.902Z,95423.18
2018-12-02T23:22:37.847Z,95420.63
2018-12-02T23:25:04.761Z,95426.48
2018-12-02T23:27:31.683Z,95418.88
2018-12-02T23:29:58.617Z,95418.19
2018-12-02T23:32:25.541Z,95416.59
2018-12-02T23:34:52.481Z,95410.80
2018-12-02T23:37:20.686Z,95417.53
2018-12-02T23:39:46.333Z,95415.02
2018-12-02T23:42:13.268Z,95406.53
2018-12-02T23:44:40.236Z,95403.84
2018-12-02T23:47:07.168Z,95409.69
2018-12-02T23:49:34.104Z,95411.27
2018-12-02T23:52:01.071Z,95405.33
2018-12-02T23:54:27.998Z,95401.69
2018-12-02T23:56:54.916Z,95405.98
2018-12-02T23:59:21.838Z,95399.39
